ハリファックス の空港の天気 - METARとTAF

ハリファックス国際空港 ( CYHZ / YHZ ) - カナダ ノバスコシア州ハリファックス
飛行場実況気象(Metar)
観測時間07/12 18:00 ADT (07/12 21:00 UTC)
風向・風速南南西 6m/s 瞬間風速10m/s
視程10km以上
天気現象
全天の4割程度の雲 雲底高度 240m
全天の8割程度の雲 雲底高度 7920m
気温23℃
湿度89%
気圧1004.8hPa
METARCYHZ 122100Z 20011G19KT 15SM SCT008 BKN260 23/21 A2967 RMK SC4CI1 SLP048 DENSITY ALT 1900FT
過去の天気等 Google飛行場航空写真 Wunderground天気予報

過去48時間のMETAR

飛行場予報(TAF)
発表時間: 7/12 17:38 ADT (7/12 20:38 UTC)
予報対象時間: 12日18時 ADT ~ 13日15時 ADT
風向・風速南南西 8m/s 瞬間風速 13m/s
視程10km以上
全天の8割程度の雲 雲底高度 210m
12日18時 ADT ~ 12日24時 ADT に一時的に
全天の4割程度の雲 雲底高度 210m
12日21時 ADT ~ 12日23時 ADT に徐々に
風向・風速南南西 5m/s 瞬間風速 10m/s
13日2時 ADT から
風向・風速南南西 6m/s
視程10km以上
天気現象もや
全天を覆う雲 雲底高度 150m
13日2時 ADT ~ 13日8時 ADT に一時的に
視程4830m
天気現象弱い霧雨 もや
全天を覆う雲 雲底高度 90m
13日8時 ADT から
風向・風速南西 5m/s
視程10km以上
全天を覆う雲 雲底高度 370m
13日12時 ADT から
風向・風速南西 5m/s 瞬間風速 10m/s
視程10km以上
全天の8割程度の雲 雲底高度 910m
13日14時 ADT から
風向・風速西南西 5m/s
視程10km以上
天気現象弱いしゅう雨
全天を覆う雲 雲底高度 1220m
TAF CYHZ 122038Z 1221/1318 20015G25KT P6SM BKN007
TEMPO 1221/1303 SCT007
BECMG 1300/1302 21010G20KT
FM130500 21012KT 6SM BR OVC005
TEMPO 1305/1311 3SM -DZ BR OVC003
FM131100 23010KT P6SM OVC012
FM131500 23010G20KT P6SM BKN030
FM131700 25010KT P6SM -SHRA OVC040 RMK NXT FCST BY 130000Z